Bella Una — WDF6443 — position and weather

sailwx.info

Track history (hours):
 
Tides and Currents Weather Stations Pressure Air Temp Water Temp Dewpoint Dewpoint Depression Visibility Wind Speed Wind Dir Waves Ship Positions

Bella Una

Owner: Bella Una, LLC, Fort Lauderdale, FL. More information available from US FCC via Universal Licensing System and Coast Guard Vessel Documentation Center.

Last reported at 2016-Aug-30 14:27 UTC. Time now 2016-Aug-30 15:02 UTC.
Position N 40°45' W 074°01'.

Length 39 m; draft 2.2 m.

Type: Pleasure craft. MMSI: 366609000.

Date/timePositionNaut miles runAvg speedWind from/ knotsBaromVisibWave heightAir tempDewpointWater temp
2016-Aug-30 14:27N 40°45' W 074°01'0 0.0
2016-Aug-30 13:30N 40°45' W 074°01'0 0.0
2016-Aug-30 12:33N 40°45' W 074°01'0 0.0
2016-Aug-30 11:33N 40°45' W 074°01'0 0.0
2016-Aug-30 10:33N 40°45' W 074°01'3 2.7
2016-Aug-30 09:32N 40°43' W 074°03'0 0.0
2016-Aug-30 08:32N 40°43' W 074°03'0 0.0
2016-Aug-30 07:32N 40°43' W 074°03'0 0.0
2016-Aug-30 06:32N 40°43' W 074°03'0 0.0
2016-Aug-30 05:32N 40°43' W 074°03'0 0.0
2016-Aug-30 04:32N 40°43' W 074°03'0 0.0
2016-Aug-30 03:32N 40°43' W 074°03'0 0.0
2016-Aug-30 02:32N 40°43' W 074°03'0 0.0
2016-Aug-30 01:32N 40°43' W 074°03'0 0.0
2016-Aug-30 00:32N 40°43' W 074°03'0 0.0
2016-Aug-29 23:32N 40°43' W 074°03'0 0.0
2016-Aug-29 22:32N 40°43' W 074°03'0 0.1
2016-Aug-29 21:32N 40°43' W 074°03'0 0.1
2016-Aug-29 20:32N 40°43' W 074°03'0 0.0
2016-Aug-29 19:32N 40°43' W 074°03'0 0.0
2016-Aug-29 18:32N 40°43' W 074°03'0 0.0
2016-Aug-29 17:23N 40°43' W 074°03'2 2.0
2016-Aug-29 16:33N 40°44' W 074°01'1 1.1
2016-Aug-29 15:31N 40°45' W 074°01'0 0.0
2016-Aug-29 14:31N 40°45' W 074°01'1 0.0
2016-Aug-27 18:28N 40°46' W 074°00'4 4.8
2016-Aug-27 17:33N 40°41' W 074°02'4 1.1
2016-Aug-27 14:21N 40°45' W 074°01'0 0.0
2016-Aug-27 13:33N 40°45' W 074°01'0 0.0
2016-Aug-27 12:33N 40°45' W 074°01'0 0.0
2016-Aug-27 11:33N 40°45' W 074°01'0 0.0
2016-Aug-27 10:33N 40°45' W 074°01'0 0.0
2016-Aug-27 09:33N 40°45' W 074°01'0 0.0
2016-Aug-27 08:33N 40°45' W 074°01'0 0.0
2016-Aug-27 07:33N 40°45' W 074°01'0 0.0
2016-Aug-27 06:33N 40°45' W 074°01'0 0.0
2016-Aug-27 04:33N 40°45' W 074°01'0 0.0
2016-Aug-27 03:33N 40°45' W 074°01'0 0.0
2016-Aug-27 02:33N 40°45' W 074°01'0 0.5
2016-Aug-27 01:34N 40°44' W 074°01'2 2.5
2016-Aug-27 00:33N 40°42' W 074°00'3 3.1
2016-Aug-26 23:33N 40°45' W 074°01'0 0.4
2016-Aug-26 22:33N 40°45' W 074°01'0 0.0
2016-Aug-26 21:33N 40°45' W 074°01'0 0.0
2016-Aug-26 20:33N 40°45' W 074°01'0 0.0
2016-Aug-26 19:33N 40°45' W 074°01'0 0.0
2016-Aug-26 18:33N 40°45' W 074°01'0 0.0
2016-Aug-26 17:33N 40°45' W 074°01'0 0.0
2016-Aug-26 16:33N 40°45' W 074°01'0 0.0
2016-Aug-26 15:33N 40°45' W 074°01'0 0.0
2016-Aug-26 14:33N 40°45' W 074°01'0 0.0
2016-Aug-26 13:33N 40°45' W 074°01'0 0.0
2016-Aug-26 12:33N 40°45' W 074°01'0 0.0
2016-Aug-26 11:33N 40°45' W 074°01'0 0.0
2016-Aug-26 10:33N 40°45' W 074°01'0 0.0
2016-Aug-26 09:33N 40°45' W 074°01'0 0.0
2016-Aug-26 08:33N 40°45' W 074°01'0 0.0
2016-Aug-26 07:33N 40°45' W 074°01'0 0.0
2016-Aug-26 06:33N 40°45' W 074°01'0 0.0
2016-Aug-26 04:33N 40°45' W 074°01'0 0.0
2016-Aug-26 03:33N 40°45' W 074°01'0 0.0
2016-Aug-26 02:33N 40°45' W 074°01'2 1.9
2016-Aug-26 01:33N 40°43' W 074°01'1 1.4
2016-Aug-26 00:33N 40°42' W 074°01'3 3.2
2016-Aug-25 23:31N 40°45' W 074°01'0 0.0
2016-Aug-25 22:31N 40°45' W 074°01'0 0.0
2016-Aug-25 21:31N 40°45' W 074°01'0 0.0
2016-Aug-25 20:31N 40°45' W 074°01'0 0.0
2016-Aug-25 19:31N 40°45' W 074°01'0 0.1
2016-Aug-25 18:33N 40°45' W 074°01'2 2.0
2016-Aug-25 17:33N 40°43' W 074°02'2 2.0
2016-Aug-25 16:32N 40°45' W 074°01'0 0.0
2016-Aug-25 15:32N 40°45' W 074°01'0 0.0
2016-Aug-25 14:32N 40°45' W 074°01'0 0.0
2016-Aug-25 13:32N 40°45' W 074°01'0 0.0
2016-Aug-25 12:32N 40°45' W 074°01'0 0.0
2016-Aug-25 11:32N 40°45' W 074°01'0 0.0
2016-Aug-25 10:32N 40°45' W 074°01'0 0.0
2016-Aug-25 09:32N 40°45' W 074°01'0 0.0
2016-Aug-25 08:32N 40°45' W 074°01'0 0.0
2016-Aug-25 07:32N 40°45' W 074°01'0 0.0
2016-Aug-25 06:32N 40°45' W 074°01'0 0.0
2016-Aug-25 04:32N 40°45' W 074°01'0 0.0
2016-Aug-25 03:32N 40°45' W 074°01'0 0.0
2016-Aug-25 02:32N 40°45' W 074°01'0 0.0
2016-Aug-25 01:32N 40°45' W 074°01'0 0.0
2016-Aug-25 00:32N 40°45' W 074°01'0 0.0
2016-Aug-24 23:32N 40°45' W 074°01'0 0.0
2016-Aug-24 22:32N 40°45' W 074°01'0 0.0
2016-Aug-24 21:32N 40°45' W 074°01'0 0.0
2016-Aug-24 20:32N 40°45' W 074°01'0 0.0
2016-Aug-24 19:32N 40°45' W 074°01'0 0.0
2016-Aug-24 18:32N 40°45' W 074°01'0 0.0
2016-Aug-24 17:32N 40°45' W 074°01'0 0.0
2016-Aug-24 16:32N 40°45' W 074°01'0 0.0
2016-Aug-24 15:32N 40°45' W 074°01'0 0.0
2016-Aug-24 14:32N 40°45' W 074°01'0 0.0
2016-Aug-24 13:29N 40°45' W 074°01'0 0.0
2016-Aug-24 12:32N 40°45' W 074°01'0 0.0
2016-Aug-24 11:32N 40°45' W 074°01'0 0.0
2016-Aug-24 10:32N 40°45' W 074°01'0 0.0
2016-Aug-24 09:32N 40°45' W 074°01'0 0.0
2016-Aug-24 08:32N 40°45' W 074°01'0 0.0
2016-Aug-24 07:32N 40°45' W 074°01'0 0.0
2016-Aug-24 06:32N 40°45' W 074°01'0 0.0
2016-Aug-24 04:32N 40°45' W 074°01'0 0.0
2016-Aug-24 03:32N 40°45' W 074°01'0 0.0
2016-Aug-24 02:32N 40°45' W 074°01'0 0.0
2016-Aug-24 01:32N 40°45' W 074°01'0 0.0
2016-Aug-24 00:32N 40°45' W 074°01'0 0.0
2016-Aug-23 23:32N 40°45' W 074°01'0 0.0
2016-Aug-23 22:32N 40°45' W 074°01'0 0.0
2016-Aug-23 21:32N 40°45' W 074°01'0 0.0
2016-Aug-23 20:32N 40°45' W 074°01'0 0.0
2016-Aug-23 19:32N 40°45' W 074°01'0 0.0
2016-Aug-23 18:32N 40°45' W 074°01'0 0.0
2016-Aug-23 17:32N 40°45' W 074°01'0 0.0
2016-Aug-23 16:32N 40°45' W 074°01'0 0.0
2016-Aug-23 15:32N 40°45' W 074°01'0 0.0
2016-Aug-23 14:29N 40°45' W 074°01'0 0.0
2016-Aug-23 13:32N 40°45' W 074°01'0 0.0
2016-Aug-23 12:32N 40°45' W 074°01'  
Track history (hours):
 
Tides and Currents Weather Stations Pressure Air Temp Water Temp Dewpoint Dewpoint Depression Visibility Wind Speed Wind Dir Waves Ship Positions

Bella Una

Owner: Bella Una, LLC, Fort Lauderdale, FL. More information available from US FCC via Universal Licensing System and Coast Guard Vessel Documentation Center.

Last reported at 2016-Aug-30 14:27 UTC. Time now 2016-Aug-30 15:02 UTC.
Position N 40°45' W 074°01'.

Length 39 m; draft 2.2 m.

Type: Pleasure craft. MMSI: 366609000.

Date/timePositionNaut miles runAvg speedWind from/ knotsBaromVisibWave heightAir tempDewpointWater temp
2016-Aug-30 14:27N 40°45' W 074°01'0 0.0
2016-Aug-30 13:30N 40°45' W 074°01'0 0.0
2016-Aug-30 12:33N 40°45' W 074°01'0 0.0
2016-Aug-30 11:33N 40°45' W 074°01'0 0.0
2016-Aug-30 10:33N 40°45' W 074°01'3 2.7
2016-Aug-30 09:32N 40°43' W 074°03'0 0.0
2016-Aug-30 08:32N 40°43' W 074°03'0 0.0
2016-Aug-30 07:32N 40°43' W 074°03'0 0.0
2016-Aug-30 06:32N 40°43' W 074°03'0 0.0
2016-Aug-30 05:32N 40°43' W 074°03'0 0.0
2016-Aug-30 04:32N 40°43' W 074°03'0 0.0
2016-Aug-30 03:32N 40°43' W 074°03'0 0.0
2016-Aug-30 02:32N 40°43' W 074°03'0 0.0
2016-Aug-30 01:32N 40°43' W 074°03'0 0.0
2016-Aug-30 00:32N 40°43' W 074°03'0 0.0
2016-Aug-29 23:32N 40°43' W 074°03'0 0.0
2016-Aug-29 22:32N 40°43' W 074°03'0 0.1
2016-Aug-29 21:32N 40°43' W 074°03'0 0.1
2016-Aug-29 20:32N 40°43' W 074°03'0 0.0
2016-Aug-29 19:32N 40°43' W 074°03'0 0.0
2016-Aug-29 18:32N 40°43' W 074°03'0 0.0
2016-Aug-29 17:23N 40°43' W 074°03'2 2.0
2016-Aug-29 16:33N 40°44' W 074°01'1 1.1
2016-Aug-29 15:31N 40°45' W 074°01'0 0.0
2016-Aug-29 14:31N 40°45' W 074°01'1 0.0
2016-Aug-27 18:28N 40°46' W 074°00'4 4.8
2016-Aug-27 17:33N 40°41' W 074°02'4 1.1
2016-Aug-27 14:21N 40°45' W 074°01'0 0.0
2016-Aug-27 13:33N 40°45' W 074°01'0 0.0
2016-Aug-27 12:33N 40°45' W 074°01'0 0.0
2016-Aug-27 11:33N 40°45' W 074°01'0 0.0
2016-Aug-27 10:33N 40°45' W 074°01'0 0.0
2016-Aug-27 09:33N 40°45' W 074°01'0 0.0
2016-Aug-27 08:33N 40°45' W 074°01'0 0.0
2016-Aug-27 07:33N 40°45' W 074°01'0 0.0
2016-Aug-27 06:33N 40°45' W 074°01'0 0.0
2016-Aug-27 04:33N 40°45' W 074°01'0 0.0
2016-Aug-27 03:33N 40°45' W 074°01'0 0.0
2016-Aug-27 02:33N 40°45' W 074°01'0 0.5
2016-Aug-27 01:34N 40°44' W 074°01'2 2.5
2016-Aug-27 00:33N 40°42' W 074°00'3 3.1
2016-Aug-26 23:33N 40°45' W 074°01'0 0.4
2016-Aug-26 22:33N 40°45' W 074°01'0 0.0
2016-Aug-26 21:33N 40°45' W 074°01'0 0.0
2016-Aug-26 20:33N 40°45' W 074°01'0 0.0
2016-Aug-26 19:33N 40°45' W 074°01'0 0.0
2016-Aug-26 18:33N 40°45' W 074°01'0 0.0
2016-Aug-26 17:33N 40°45' W 074°01'0 0.0
2016-Aug-26 16:33N 40°45' W 074°01'0 0.0
2016-Aug-26 15:33N 40°45' W 074°01'0 0.0
2016-Aug-26 14:33N 40°45' W 074°01'0 0.0
2016-Aug-26 13:33N 40°45' W 074°01'0 0.0
2016-Aug-26 12:33N 40°45' W 074°01'0 0.0
2016-Aug-26 11:33N 40°45' W 074°01'0 0.0
2016-Aug-26 10:33N 40°45' W 074°01'0 0.0
2016-Aug-26 09:33N 40°45' W 074°01'0 0.0
2016-Aug-26 08:33N 40°45' W 074°01'0 0.0
2016-Aug-26 07:33N 40°45' W 074°01'0 0.0
2016-Aug-26 06:33N 40°45' W 074°01'0 0.0
2016-Aug-26 04:33N 40°45' W 074°01'0 0.0
2016-Aug-26 03:33N 40°45' W 074°01'0 0.0
2016-Aug-26 02:33N 40°45' W 074°01'2 1.9
2016-Aug-26 01:33N 40°43' W 074°01'1 1.4
2016-Aug-26 00:33N 40°42' W 074°01'3 3.2
2016-Aug-25 23:31N 40°45' W 074°01'0 0.0
2016-Aug-25 22:31N 40°45' W 074°01'0 0.0
2016-Aug-25 21:31N 40°45' W 074°01'0 0.0
2016-Aug-25 20:31N 40°45' W 074°01'0 0.0
2016-Aug-25 19:31N 40°45' W 074°01'0 0.1
2016-Aug-25 18:33N 40°45' W 074°01'2 2.0
2016-Aug-25 17:33N 40°43' W 074°02'2 2.0
2016-Aug-25 16:32N 40°45' W 074°01'0 0.0
2016-Aug-25 15:32N 40°45' W 074°01'0 0.0
2016-Aug-25 14:32N 40°45' W 074°01'0 0.0
2016-Aug-25 13:32N 40°45' W 074°01'0 0.0
2016-Aug-25 12:32N 40°45' W 074°01'0 0.0
2016-Aug-25 11:32N 40°45' W 074°01'0 0.0
2016-Aug-25 10:32N 40°45' W 074°01'0 0.0
2016-Aug-25 09:32N 40°45' W 074°01'0 0.0
2016-Aug-25 08:32N 40°45' W 074°01'0 0.0
2016-Aug-25 07:32N 40°45' W 074°01'0 0.0
2016-Aug-25 06:32N 40°45' W 074°01'0 0.0
2016-Aug-25 04:32N 40°45' W 074°01'0 0.0
2016-Aug-25 03:32N 40°45' W 074°01'0 0.0
2016-Aug-25 02:32N 40°45' W 074°01'0 0.0
2016-Aug-25 01:32N 40°45' W 074°01'0 0.0
2016-Aug-25 00:32N 40°45' W 074°01'0 0.0
2016-Aug-24 23:32N 40°45' W 074°01'0 0.0
2016-Aug-24 22:32N 40°45' W 074°01'0 0.0
2016-Aug-24 21:32N 40°45' W 074°01'0 0.0
2016-Aug-24 20:32N 40°45' W 074°01'0 0.0
2016-Aug-24 19:32N 40°45' W 074°01'0 0.0
2016-Aug-24 18:32N 40°45' W 074°01'0 0.0
2016-Aug-24 17:32N 40°45' W 074°01'0 0.0
2016-Aug-24 16:32N 40°45' W 074°01'0 0.0
2016-Aug-24 15:32N 40°45' W 074°01'0 0.0
2016-Aug-24 14:32N 40°45' W 074°01'0 0.0
2016-Aug-24 13:29N 40°45' W 074°01'0 0.0
2016-Aug-24 12:32N 40°45' W 074°01'0 0.0
2016-Aug-24 11:32N 40°45' W 074°01'0 0.0
2016-Aug-24 10:32N 40°45' W 074°01'0 0.0
2016-Aug-24 09:32N 40°45' W 074°01'0 0.0
2016-Aug-24 08:32N 40°45' W 074°01'0 0.0
2016-Aug-24 07:32N 40°45' W 074°01'0 0.0
2016-Aug-24 06:32N 40°45' W 074°01'0 0.0
2016-Aug-24 04:32N 40°45' W 074°01'0 0.0
2016-Aug-24 03:32N 40°45' W 074°01'0 0.0
2016-Aug-24 02:32N 40°45' W 074°01'0 0.0
2016-Aug-24 01:32N 40°45' W 074°01'0 0.0
2016-Aug-24 00:32N 40°45' W 074°01'0 0.0
2016-Aug-23 23:32N 40°45' W 074°01'0 0.0
2016-Aug-23 22:32N 40°45' W 074°01'0 0.0
2016-Aug-23 21:32N 40°45' W 074°01'0 0.0
2016-Aug-23 20:32N 40°45' W 074°01'0 0.0
2016-Aug-23 19:32N 40°45' W 074°01'0 0.0
2016-Aug-23 18:32N 40°45' W 074°01'0 0.0
2016-Aug-23 17:32N 40°45' W 074°01'0 0.0
2016-Aug-23 16:32N 40°45' W 074°01'0 0.0
2016-Aug-23 15:32N 40°45' W 074°01'0 0.0
2016-Aug-23 14:29N 40°45' W 074°01'0 0.0
2016-Aug-23 13:32N 40°45' W 074°01'0 0.0
2016-Aug-23 12:32N 40°45' W 074°01'  

Dump ship's entire track history